Time;durP1;ratioP1;P1;durP2;ratioP2;P2;SDS_P1;SDS_P2;PMS_P1;PMS_P2;Temp;Humidity;BMP_temperature;BMP_pressure;BME280_temperature;BME280_humidity;BME280_pressure;Samples;Min_cycle;Max_cycle;Signal;HPM_P1;HPM_P2
2021/07/03 00:01:36;;;;;;;;;;;;;;;;;;5007287;28;20384;-87
2021/07/03 00:04:01;;;;;;;;;;;;;;;;;;5006827;28;19929;-87
2021/07/03 00:06:26;;;;;;;;;;;;;;;;;;5006250;28;20297;-87
2021/07/03 00:08:51;;;;;;;;;;;;;;;;;;4999750;23;20421;-46
2021/07/03 00:11:16;;;;;;;;;;;;;;;;;;4970278;28;19910;-48
2021/07/03 00:13:41;;;;;;;;;;;;;;;;;;4970449;28;20393;-47
2021/07/03 00:16:07;;;;;;;;;;;;;;;;;;4968032;28;20004;-47
2021/07/03 00:18:32;;;;;;;;;;;;;;;;;;4968880;28;20318;-47
2021/07/03 00:20:57;;;;;;;;;;;;;;;;;;4970363;28;19914;-47
2021/07/03 00:23:22;;;;;;;;;;;;;;;;;;4999954;23;19930;-49
2021/07/03 00:25:47;;;;;;;;;;;;;;;;;;5005108;28;20076;-47
2021/07/03 00:28:12;;;;;;;;;;;;;;;;;;5006117;28;19976;-47
2021/07/03 00:30:37;;;;;;;;;;;;;;;;;;5008311;28;19941;-48
2021/07/03 00:33:02;;;;;;;;;;;;;;;;;;5006913;28;19945;-49
2021/07/03 00:35:27;;;;;;;;;;;;;;;;;;5009218;28;20327;-48
2021/07/03 00:37:52;;;;;;;;;;;;;;;;;;5009058;28;19920;-47
2021/07/03 00:40:18;;;;;;;;;;;;;;;;;;5008749;28;19910;-48
2021/07/03 00:42:43;;;;;;;;;;;;;;;;;;5005651;28;20071;-48
2021/07/03 00:45:08;;;;;;;;;;;;;;;;;;5009005;28;19963;-49
2021/07/03 00:47:33;;;;;;;;;;;;;;;;;;5008864;28;19909;-48
2021/07/03 00:49:58;;;;;;;;;;;;;;;;;;5007001;28;20392;-48
2021/07/03 00:52:23;;;;;;;;;;;;;;;;;;5008396;28;19917;-47
2021/07/03 00:54:48;;;;;;;;;;;;;;;;;;5007668;28;19967;-50
2021/07/03 00:57:13;;;;;;;;;;;;;;;;;;5005813;28;19951;-48
2021/07/03 00:59:38;;;;;;;;;;;;;;;;;;5005965;28;19921;-47
2021/07/03 01:02:03;;;;;;;;;;;;;;;;;;5001264;28;20146;-49
2021/07/03 01:04:28;;;;;;;;;;;;;;;;;;5003775;28;20381;-47
2021/07/03 01:06:54;;;;;;;;;;;;;;;;;;5005831;28;19914;-49
2021/07/03 01:09:19;;;;;;;;;;;;;;;;;;5007768;28;19955;-47
2021/07/03 01:11:44;;;;;;;;;;;;;;;;;;5007734;28;20289;-48
2021/07/03 01:14:09;;;;;;;;;;;;;;;;;;5006322;28;20013;-48
2021/07/03 01:16:34;;;;;;;;;;;;;;;;;;5008849;28;19909;-46
2021/07/03 01:18:59;;;;;;;;;;;;;;;;;;5007048;28;19914;-47
2021/07/03 01:21:24;;;;;;;;;;;;;;;;;;5008091;28;19918;-48
2021/07/03 01:23:49;;;;;;;;;;;;;;;;;;5007855;28;19932;-48
2021/07/03 01:26:15;;;;;;;;;;;;;;;;;;5007334;28;19933;-48
2021/07/03 01:28:40;;;;;;;;;;;;;;;;;;5006351;28;20047;-48
2021/07/03 01:31:05;;;;;;;;;;;;;;;;;;5008138;28;20008;-49
2021/07/03 01:33:30;;;;;;;;;;;;;;;;;;5007344;28;19936;-48
2021/07/03 01:35:55;;;;;;;;;;;;;;;;;;5008668;28;20336;-49
2021/07/03 01:38:20;;;;;;;;;;;;;;;;;;5009461;28;20005;-48
2021/07/03 01:40:45;;;;;;;;;;;;;;;;;;5004818;28;19928;-48
2021/07/03 01:43:10;;;;;;;;;;;;;;;;;;5010984;28;20362;-47
2021/07/03 01:45:35;;;;;;;;;;;;;;;;;;5012359;28;19915;-48
2021/07/03 01:48:00;;;;;;;;;;;;;;;;;;5008734;28;19914;-48
2021/07/03 01:50:25;;;;;;;;;;;;;;;;;;5012227;28;19910;-47
2021/07/03 01:52:51;;;;;;;;;;;;;;;;;;5009451;28;19920;-47
2021/07/03 01:55:16;;;;;;;;;;;;;;;;;;5010594;28;19913;-48
2021/07/03 01:57:41;;;;;;;;;;;;;;;;;;5010378;28;19910;-49
2021/07/03 02:00:06;;;;;;;;;;;;;;;;;;5010611;28;19969;-48
2021/07/03 02:02:31;;;;;;;;;;;;;;;;;;5010044;28;19914;-47
2021/07/03 02:04:56;;;;;;;;;;;;;;;;;;5008376;28;19914;-47
2021/07/03 02:07:21;;;;;;;;;;;;;;;;;;5007765;28;20197;-47
2021/07/03 02:09:46;;;;;;;;;;;;;;;;;;5010114;28;19964;-48
2021/07/03 02:12:11;;;;;;;;;;;;;;;;;;5009989;28;19914;-47
2021/07/03 02:14:37;;;;;;;;;;;;;;;;;;5010242;28;19945;-48
2021/07/03 02:17:02;;;;;;;;;;;;;;;;;;5010667;28;20372;-48
2021/07/03 02:19:27;;;;;;;;;;;;;;;;;;5008201;28;20392;-47
2021/07/03 02:21:52;;;;;;;;;;;;;;;;;;5011266;28;20278;-49
2021/07/03 02:24:17;;;;;;;;;;;;;;;;;;5009292;28;19917;-47
2021/07/03 02:26:42;;;;;;;;;;;;;;;;;;5009335;28;19967;-48
2021/07/03 02:29:07;;;;;;;;;;;;;;;;;;5009469;28;19971;-47
2021/07/03 02:31:32;;;;;;;;;;;;;;;;;;5010284;28;20340;-49
2021/07/03 02:33:57;;;;;;;;;;;;;;;;;;5009265;28;19936;-49
2021/07/03 02:36:22;;;;;;;;;;;;;;;;;;5011269;28;20422;-48
2021/07/03 02:38:48;;;;;;;;;;;;;;;;;;5009641;28;19909;-48
2021/07/03 02:41:13;;;;;;;;;;;;;;;;;;5008811;28;19920;-48
2021/07/03 02:43:38;;;;;;;;;;;;;;;;;;5007735;28;19937;-47
2021/07/03 02:46:03;;;;;;;;;;;;;;;;;;5011237;28;19916;-49
2021/07/03 02:48:28;;;;;;;;;;;;;;;;;;5008533;28;19913;-47
2021/07/03 02:50:53;;;;;;;;;;;;;;;;;;5010768;28;19936;-47
2021/07/03 02:53:18;;;;;;;;;;;;;;;;;;5008948;28;19917;-49
2021/07/03 02:55:43;;;;;;;;;;;;;;;;;;5008857;28;20376;-48
2021/07/03 02:58:08;;;;;;;;;;;;;;;;;;5010045;28;19920;-47
2021/07/03 03:00:34;;;;;;;;;;;;;;;;;;5010846;28;19917;-49
2021/07/03 03:02:59;;;;;;;;;;;;;;;;;;5009021;28;19925;-48
2021/07/03 03:05:24;;;;;;;;;;;;;;;;;;5009536;28;19918;-48
2021/07/03 03:07:49;;;;;;;;;;;;;;;;;;5009203;28;19961;-48
2021/07/03 03:10:14;;;;;;;;;;;;;;;;;;5009263;28;19909;-47
2021/07/03 03:12:39;;;;;;;;;;;;;;;;;;5009436;28;19923;-48
2021/07/03 03:15:04;;;;;;;;;;;;;;;;;;5007372;28;21506;-48
2021/07/03 03:17:29;;;;;;;;;;;;;;;;;;5010633;28;20361;-48
2021/07/03 03:19:54;;;;;;;;;;;;;;;;;;5008559;28;19948;-48
2021/07/03 03:22:20;;;;;;;;;;;;;;;;;;5009571;28;19909;-47
2021/07/03 03:24:47;;;;;;;;;;;;;;;;;;5010045;28;20330;-48
2021/07/03 03:27:12;;;;;;;;;;;;;;;;;;5007633;28;19920;-48
2021/07/03 03:29:38;;;;;;;;;;;;;;;;;;5008543;28;19913;-48
2021/07/03 03:32:03;;;;;;;;;;;;;;;;;;5008754;28;19963;-47
2021/07/03 03:34:28;;;;;;;;;;;;;;;;;;5004347;28;19917;-47
2021/07/03 03:36:53;;;;;;;;;;;;;;;;;;5009130;28;19955;-48
2021/07/03 03:39:18;;;;;;;;;;;;;;;;;;5004773;28;19909;-47
2021/07/03 03:41:43;;;;;;;;;;;;;;;;;;5008814;28;19967;-48
2021/07/03 03:44:08;;;;;;;;;;;;;;;;;;5009904;28;19910;-47
2021/07/03 03:46:33;;;;;;;;;;;;;;;;;;5007491;28;20293;-48
2021/07/03 03:48:58;;;;;;;;;;;;;;;;;;5007390;28;20374;-48
2021/07/03 03:51:23;;;;;;;;;;;;;;;;;;5008410;28;19985;-48
2021/07/03 03:53:49;;;;;;;;;;;;;;;;;;5007900;28;19920;-49
2021/07/03 03:56:14;;;;;;;;;;;;;;;;;;5008630;28;19957;-47
2021/07/03 03:58:39;;;;;;;;;;;;;;;;;;5009935;28;19963;-47
2021/07/03 04:01:04;;;;;;;;;;;;;;;;;;5006759;28;19913;-48
2021/07/03 04:03:29;;;;;;;;;;;;;;;;;;5008340;28;19940;-48
2021/07/03 04:05:54;;;;;;;;;;;;;;;;;;5006688;28;20270;-47
2021/07/03 04:08:19;;;;;;;;;;;;;;;;;;5007311;28;20382;-48
2021/07/03 04:10:45;;;;;;;;;;;;;;;;;;5008628;28;19945;-47
2021/07/03 04:13:10;;;;;;;;;;;;;;;;;;5009026;28;20200;-48
2021/07/03 04:15:35;;;;;;;;;;;;;;;;;;5008325;28;20393;-47
2021/07/03 04:18:00;;;;;;;;;;;;;;;;;;5007725;28;19917;-48
2021/07/03 04:20:25;;;;;;;;;;;;;;;;;;5007823;28;19941;-48
2021/07/03 04:22:50;;;;;;;;;;;;;;;;;;5009551;28;19920;-48
2021/07/03 04:25:16;;;;;;;;;;;;;;;;;;5004879;28;19920;-47
2021/07/03 04:27:41;;;;;;;;;;;;;;;;;;5009697;28;19910;-48
2021/07/03 04:30:07;;;;;;;;;;;;;;;;;;5007259;28;20427;-48
2021/07/03 04:32:32;;;;;;;;;;;;;;;;;;5008779;28;20258;-48
2021/07/03 04:34:57;;;;;;;;;;;;;;;;;;5007509;28;20371;-47
2021/07/03 04:37:22;;;;;;;;;;;;;;;;;;5008382;28;19910;-46
2021/07/03 04:39:47;;;;;;;;;;;;;;;;;;5006993;28;19917;-47
2021/07/03 04:42:12;;;;;;;;;;;;;;;;;;5006834;28;19920;-48
2021/07/03 04:44:37;;;;;;;;;;;;;;;;;;5008410;28;19988;-47
2021/07/03 04:47:02;;;;;;;;;;;;;;;;;;5009264;28;19910;-47
2021/07/03 04:49:31;;;;;;;;;;;;;;;;;;5007989;28;19913;-48
2021/07/03 04:51:57;;;;;;;;;;;;;;;;;;5008768;28;19924;-47
2021/07/03 04:54:22;;;;;;;;;;;;;;;;;;5008609;28;19917;-47
2021/07/03 04:56:47;;;;;;;;;;;;;;;;;;5007959;28;20409;-49
2021/07/03 04:59:12;;;;;;;;;;;;;;;;;;5006969;28;19923;-47
2021/07/03 05:01:37;;;;;;;;;;;;;;;;;;5007763;28;20016;-48
2021/07/03 05:04:02;;;;;;;;;;;;;;;;;;5007660;28;19971;-48
2021/07/03 05:06:27;;;;;;;;;;;;;;;;;;5007206;28;19922;-49
2021/07/03 05:08:52;;;;;;;;;;;;;;;;;;5009525;28;19914;-49
2021/07/03 05:11:17;;;;;;;;;;;;;;;;;;5007320;28;19910;-49
2021/07/03 05:13:43;;;;;;;;;;;;;;;;;;5008617;28;20293;-50
2021/07/03 05:16:08;;;;;;;;;;;;;;;;;;5010625;28;19913;-48
2021/07/03 05:18:33;;;;;;;;;;;;;;;;;;5011333;28;19939;-48
2021/07/03 05:20:58;;;;;;;;;;;;;;;;;;5011680;28;19963;-49
2021/07/03 05:23:23;;;;;;;;;;;;;;;;;;5011564;28;19922;-50
2021/07/03 05:25:49;;;;;;;;;;;;;;;;;;5010556;28;19910;-47
2021/07/03 05:28:14;;;;;;;;;;;;;;;;;;5010943;28;19916;-49
2021/07/03 05:30:39;;;;;;;;;;;;;;;;;;5010909;28;20369;-49
2021/07/03 05:33:04;;;;;;;;;;;;;;;;;;5009129;28;19918;-49
2021/07/03 05:35:30;;;;;;;;;;;;;;;;;;5012586;28;20008;-48
2021/07/03 05:37:55;;;;;;;;;;;;;;;;;;5010537;28;19992;-49
2021/07/03 05:40:20;;;;;;;;;;;;;;;;;;5006769;28;20404;-47
2021/07/03 05:42:45;;;;;;;;;;;;;;;;;;5011604;28;19909;-48
2021/07/03 05:45:10;;;;;;;;;;;;;;;;;;5010003;28;20264;-48
2021/07/03 05:47:35;;;;;;;;;;;;;;;;;;5011683;28;19942;-47
2021/07/03 05:50:00;;;;;;;;;;;;;;;;;;5010071;28;19949;-48
2021/07/03 05:52:25;;;;;;;;;;;;;;;;;;5011954;28;19910;-48
2021/07/03 05:54:51;;;;;;;;;;;;;;;;;;5011833;28;19920;-47
2021/07/03 05:57:16;;;;;;;;;;;;;;;;;;5010882;28;19922;-47
2021/07/03 05:59:41;;;;;;;;;;;;;;;;;;5012114;28;19936;-47
2021/07/03 06:02:06;;;;;;;;;;;;;;;;;;5008357;28;20286;-48
2021/07/03 06:04:31;;;;;;;;;;;;;;;;;;5009869;28;20768;-48
2021/07/03 06:06:56;;;;;;;;;;;;;;;;;;5008124;28;19917;-48
2021/07/03 06:09:21;;;;;;;;;;;;;;;;;;5011450;28;19917;-47
2021/07/03 06:11:48;;;;;;;;;;;;;;;;;;5010231;28;19913;-48
2021/07/03 06:14:13;;;;;;;;;;;;;;;;;;5010316;28;20287;-48
2021/07/03 06:16:38;;;;;;;;;;;;;;;;;;5008536;28;19914;-48
2021/07/03 06:19:03;;;;;;;;;;;;;;;;;;5009804;28;19948;-47
2021/07/03 06:21:28;;;;;;;;;;;;;;;;;;5010690;28;19936;-49
2021/07/03 06:23:53;;;;;;;;;;;;;;;;;;5023126;23;19972;-46
2021/07/03 06:26:18;;;;;;;;;;;;;;;;;;4990722;28;19961;-47
2021/07/03 06:28:43;;;;;;;;;;;;;;;;;;4988318;28;19914;-47
2021/07/03 06:31:09;;;;;;;;;;;;;;;;;;4991760;28;19910;-47
2021/07/03 06:33:34;;;;;;;;;;;;;;;;;;4988653;28;19922;-47
2021/07/03 06:35:59;;;;;;;;;;;;;;;;;;4986123;28;20337;-48
2021/07/03 06:38:24;;;;;;;;;;;;;;;;;;4990787;28;19917;-47
2021/07/03 06:40:49;;;;;;;;;;;;;;;;;;4989348;28;19917;-46
2021/07/03 06:43:14;;;;;;;;;;;;;;;;;;4988550;28;20366;-47
2021/07/03 06:45:39;;;;;;;;;;;;;;;;;;4991137;28;19917;-47
2021/07/03 06:48:04;;;;;;;;;;;;;;;;;;4988108;28;20929;-47
2021/07/03 06:50:29;;;;;;;;;;;;;;;;;;4991443;28;19913;-48
2021/07/03 06:52:55;;;;;;;;;;;;;;;;;;4990660;28;19910;-47
2021/07/03 06:55:20;;;;;;;;;;;;;;;;;;4989713;28;20197;-47
2021/07/03 06:57:45;;;;;;;;;;;;;;;;;;4988332;28;19920;-45
2021/07/03 07:00:10;;;;;;;;;;;;;;;;;;4989069;28;19910;-48
2021/07/03 07:02:35;;;;;;;;;;;;;;;;;;4989195;28;20338;-47
2021/07/03 07:05:00;;;;;;;;;;;;;;;;;;4988562;28;19914;-48
2021/07/03 07:07:25;;;;;;;;;;;;;;;;;;4986557;28;19914;-47
2021/07/03 07:09:51;;;;;;;;;;;;;;;;;;4990420;28;19925;-47
2021/07/03 07:12:16;;;;;;;;;;;;;;;;;;4989054;28;19910;-46
2021/07/03 07:14:42;;;;;;;;;;;;;;;;;;4986275;28;20805;-46
2021/07/03 07:17:07;;;;;;;;;;;;;;;;;;4988602;28;19913;-47
2021/07/03 07:19:32;;;;;;;;;;;;;;;;;;4987365;28;19918;-47
2021/07/03 07:21:58;;;;;;;;;;;;;;;;;;4988653;28;19917;-48
2021/07/03 07:24:23;;;;;;;;;;;;;;;;;;4990269;28;19926;-47
2021/07/03 07:26:48;;;;;;;;;;;;;;;;;;4989020;28;19920;-48
2021/07/03 07:29:13;;;;;;;;;;;;;;;;;;4989506;28;20161;-47
2021/07/03 07:31:38;;;;;;;;;;;;;;;;;;4990217;28;19937;-47
2021/07/03 07:34:03;;;;;;;;;;;;;;;;;;4989169;28;20440;-47
2021/07/03 07:36:28;;;;;;;;;;;;;;;;;;4987939;28;20684;-48
2021/07/03 07:38:53;;;;;;;;;;;;;;;;;;4988334;28;19972;-46
2021/07/03 07:41:18;;;;;;;;;;;;;;;;;;4987312;28;20452;-48
2021/07/03 07:43:44;;;;;;;;;;;;;;;;;;4986843;28;19953;-47
2021/07/03 07:46:09;;;;;;;;;;;;;;;;;;4988570;28;19917;-47
2021/07/03 07:48:34;;;;;;;;;;;;;;;;;;4988438;28;20321;-48
2021/07/03 07:51:02;;;;;;;;;;;;;;;;;;4989213;28;19965;-48
2021/07/03 07:53:27;;;;;;;;;;;;;;;;;;4987941;28;19910;-47
2021/07/03 07:55:52;;;;;;;;;;;;;;;;;;4989731;28;19921;-48
2021/07/03 07:58:17;;;;;;;;;;;;;;;;;;4985916;28;19964;-47
2021/07/03 08:00:42;;;;;;;;;;;;;;;;;;4988144;28;19968;-47
2021/07/03 08:03:08;;;;;;;;;;;;;;;;;;4987393;28;20263;-47
2021/07/03 08:05:33;;;;;;;;;;;;;;;;;;4989094;28;19910;-48
2021/07/03 08:07:58;;;;;;;;;;;;;;;;;;4989636;28;19925;-47
2021/07/03 08:10:27;;;;;;;;;;;;;;;;;;4989200;28;19914;-47
2021/07/03 08:12:52;;;;;;;;;;;;;;;;;;4988133;28;19918;-47
2021/07/03 08:15:17;;;;;;;;;;;;;;;;;;4986667;28;19925;-47
2021/07/03 08:17:43;;;;;;;;;;;;;;;;;;4985399;28;19941;-48
2021/07/03 08:20:08;;;;;;;;;;;;;;;;;;4987368;28;19910;-47
2021/07/03 08:22:33;;;;;;;;;;;;;;;;;;4988992;28;19917;-48
2021/07/03 08:24:58;;;;;;;;;;;;;;;;;;4989263;28;20324;-47
2021/07/03 08:27:23;;;;;;;;;;;;;;;;;;4988420;28;19921;-47
2021/07/03 08:29:48;;;;;;;;;;;;;;;;;;4988951;28;19920;-47
2021/07/03 08:32:14;;;;;;;;;;;;;;;;;;4990223;28;19914;-47
2021/07/03 08:34:39;;;;;;;;;;;;;;;;;;4988040;28;20362;-47
2021/07/03 08:37:04;;;;;;;;;;;;;;;;;;4989616;28;20399;-47
2021/07/03 08:39:29;;;;;;;;;;;;;;;;;;4988068;28;20013;-48
2021/07/03 08:41:54;;;;;;;;;;;;;;;;;;4987180;28;20021;-46
2021/07/03 08:44:19;;;;;;;;;;;;;;;;;;4988577;28;20381;-47
2021/07/03 08:46:44;;;;;;;;;;;;;;;;;;4990017;28;19913;-47
2021/07/03 08:49:09;;;;;;;;;;;;;;;;;;4991862;28;19914;-47
2021/07/03 08:51:34;;;;;;;;;;;;;;;;;;4992344;28;19921;-47
2021/07/03 08:54:01;;;;;;;;;;;;;;;;;;4993573;28;19917;-47
2021/07/03 08:56:26;;;;;;;;;;;;;;;;;;4991074;28;19971;-48
2021/07/03 08:58:52;;;;;;;;;;;;;;;;;;4991275;28;19913;-47
2021/07/03 09:01:17;;;;;;;;;;;;;;;;;;4989763;28;19922;-47
2021/07/03 09:03:42;;;;;;;;;;;;;;;;;;4991854;28;20377;-47
2021/07/03 09:06:07;;;;;;;;;;;;;;;;;;4989305;28;19914;-46
2021/07/03 09:08:32;;;;;;;;;;;;;;;;;;4990112;28;19929;-46
2021/07/03 09:10:57;;;;;;;;;;;;;;;;;;4988720;28;19921;-47
2021/07/03 09:13:22;;;;;;;;;;;;;;;;;;4992212;28;19918;-47
2021/07/03 09:15:47;;;;;;;;;;;;;;;;;;4993477;28;19937;-47
2021/07/03 09:18:12;;;;;;;;;;;;;;;;;;4990034;28;20440;-46
2021/07/03 09:20:38;;;;;;;;;;;;;;;;;;4990726;28;19929;-47
2021/07/03 09:23:03;;;;;;;;;;;;;;;;;;4992645;28;19968;-48
2021/07/03 09:25:28;;;;;;;;;;;;;;;;;;4991710;28;19914;-47
2021/07/03 09:27:53;;;;;;;;;;;;;;;;;;4990073;28;19921;-48
2021/07/03 09:30:20;;;;;;;;;;;;;;;;;;4992530;28;19910;-46
2021/07/03 09:32:45;;;;;;;;;;;;;;;;;;4991352;28;20362;-47
2021/07/03 09:35:10;;;;;;;;;;;;;;;;;;4991973;28;20302;-47
2021/07/03 09:37:35;;;;;;;;;;;;;;;;;;4993304;28;20318;-47
2021/07/03 09:40:00;;;;;;;;;;;;;;;;;;4989757;28;19964;-48
2021/07/03 09:42:25;;;;;;;;;;;;;;;;;;4991357;28;19917;-47
2021/07/03 09:44:50;;;;;;;;;;;;;;;;;;4992062;28;19913;-47
2021/07/03 09:47:16;;;;;;;;;;;;;;;;;;4991576;28;20302;-47
2021/07/03 09:49:41;;;;;;;;;;;;;;;;;;4989691;28;19918;-47
2021/07/03 09:52:06;;;;;;;;;;;;;;;;;;4990018;28;21469;-47
2021/07/03 09:54:31;;;;;;;;;;;;;;;;;;4992431;28;19914;-47
2021/07/03 09:56:59;;;;;;;;;;;;;;;;;;4990688;28;19921;-46
2021/07/03 09:59:24;;;;;;;;;;;;;;;;;;4991588;28;19910;-47
2021/07/03 10:01:50;;;;;;;;;;;;;;;;;;4991599;28;19925;-47
2021/07/03 10:04:15;;;;;;;;;;;;;;;;;;4989786;28;19914;-47
2021/07/03 10:06:40;;;;;;;;;;;;;;;;;;4989691;28;19960;-47
2021/07/03 10:09:05;;;;;;;;;;;;;;;;;;4990974;28;19913;-47
2021/07/03 10:11:30;;;;;;;;;;;;;;;;;;4990925;28;20565;-46
2021/07/03 10:13:55;;;;;;;;;;;;;;;;;;4991119;28;20334;-48
2021/07/03 10:16:20;;;;;;;;;;;;;;;;;;4990101;28;19944;-47
2021/07/03 10:18:45;;;;;;;;;;;;;;;;;;4990230;28;19918;-47
2021/07/03 10:21:10;;;;;;;;;;;;;;;;;;4991791;28;19910;-47
2021/07/03 10:23:35;;;;;;;;;;;;;;;;;;4990506;28;19940;-46
2021/07/03 10:26:01;;;;;;;;;;;;;;;;;;4991168;28;19917;-47
2021/07/03 10:28:26;;;;;;;;;;;;;;;;;;4989806;28;20253;-47
2021/07/03 10:30:51;;;;;;;;;;;;;;;;;;4991792;28;20325;-47
2021/07/03 10:33:17;;;;;;;;;;;;;;;;;;4988706;28;20380;-47
2021/07/03 10:35:42;;;;;;;;;;;;;;;;;;4991097;28;19917;-47
2021/07/03 10:38:07;;;;;;;;;;;;;;;;;;4989953;28;19914;-48
2021/07/03 10:40:32;;;;;;;;;;;;;;;;;;4990149;28;20437;-46
2021/07/03 10:42:57;;;;;;;;;;;;;;;;;;4989979;28;19937;-48
2021/07/03 10:45:23;;;;;;;;;;;;;;;;;;4991519;28;19914;-47
2021/07/03 10:47:48;;;;;;;;;;;;;;;;;;4989295;28;19918;-46
2021/07/03 10:50:13;;;;;;;;;;;;;;;;;;4990068;28;20444;-47
2021/07/03 10:52:39;;;;;;;;;;;;;;;;;;4990476;28;19910;-48
2021/07/03 10:55:04;;;;;;;;;;;;;;;;;;4989273;28;19918;-48
2021/07/03 10:57:29;;;;;;;;;;;;;;;;;;4986945;28;19925;-47
2021/07/03 10:59:54;;;;;;;;;;;;;;;;;;4988488;28;19917;-46
2021/07/03 11:02:19;;;;;;;;;;;;;;;;;;4990377;28;19925;-46
2021/07/03 11:04:45;;;;;;;;;;;;;;;;;;4989141;28;19940;-46
2021/07/03 11:07:10;;;;;;;;;;;;;;;;;;4987708;28;20423;-46
2021/07/03 11:09:35;;;;;;;;;;;;;;;;;;4990698;28;20009;-47
2021/07/03 11:12:00;;;;;;;;;;;;;;;;;;4990288;28;20034;-47
2021/07/03 11:14:27;;;;;;;;;;;;;;;;;;4989949;28;19924;-47
2021/07/03 11:16:52;;;;;;;;;;;;;;;;;;4988027;28;20496;-48
2021/07/03 11:19:17;;;;;;;;;;;;;;;;;;4989805;28;19914;-46
2021/07/03 11:21:42;;;;;;;;;;;;;;;;;;4990236;28;20008;-47
2021/07/03 11:24:07;;;;;;;;;;;;;;;;;;4988503;28;19925;-48
2021/07/03 11:26:32;;;;;;;;;;;;;;;;;;4990888;28;19914;-47
2021/07/03 11:29:00;;;;;;;;;;;;;;;;;;4987073;28;20417;-48
2021/07/03 11:31:25;;;;;;;;;;;;;;;;;;4989779;28;19913;-46
2021/07/03 11:33:50;;;;;;;;;;;;;;;;;;4987232;28;19995;-48
2021/07/03 11:36:16;;;;;;;;;;;;;;;;;;4989093;28;19914;-48
2021/07/03 11:38:41;;;;;;;;;;;;;;;;;;4989572;28;20290;-47
2021/07/03 11:41:06;;;;;;;;;;;;;;;;;;4985878;28;20420;-47
2021/07/03 11:43:31;;;;;;;;;;;;;;;;;;4991757;28;20421;-48
2021/07/03 11:45:56;;;;;;;;;;;;;;;;;;4926952;28;19937;-48
2021/07/03 11:48:21;;;;;;;;;;;;;;;;;;4988126;28;20395;-47
2021/07/03 11:50:46;;;;;;;;;;;;;;;;;;4988816;28;19913;-47
2021/07/03 11:53:11;;;;;;;;;;;;;;;;;;4989859;28;19956;-49
2021/07/03 11:55:36;;;;;;;;;;;;;;;;;;4988361;28;19926;-48
2021/07/03 11:58:02;;;;;;;;;;;;;;;;;;4989255;28;20286;-46
2021/07/03 12:00:27;;;;;;;;;;;;;;;;;;4989597;28;19910;-47
2021/07/03 12:02:52;;;;;;;;;;;;;;;;;;4988856;28;20370;-47
2021/07/03 12:05:17;;;;;;;;;;;;;;;;;;4989280;28;19988;-47
2021/07/03 12:07:42;;;;;;;;;;;;;;;;;;4987281;28;19914;-47
2021/07/03 12:10:07;;;;;;;;;;;;;;;;;;4988779;28;19914;-47
2021/07/03 12:12:32;;;;;;;;;;;;;;;;;;4989954;28;20008;-48
2021/07/03 12:14:57;;;;;;;;;;;;;;;;;;4986475;28;19928;-48
2021/07/03 12:17:22;;;;;;;;;;;;;;;;;;4988266;28;19914;-47
2021/07/03 12:19:48;;;;;;;;;;;;;;;;;;4987131;28;21055;-47
2021/07/03 12:22:13;;;;;;;;;;;;;;;;;;4988524;28;19921;-47
2021/07/03 12:24:38;;;;;;;;;;;;;;;;;;5012115;23;19926;-85
2021/07/03 12:27:03;;;;;;;;;;;;;;;;;;4985901;28;19972;-85
2021/07/03 12:29:29;;;;;;;;;;;;;;;;;;4968522;28;19910;-85
2021/07/03 12:31:54;;;;;;;;;;;;;;;;;;4971485;28;19961;-85
2021/07/03 12:34:23;;;;;;;;;;;;;;;;;;4970219;28;19917;-85
2021/07/03 12:36:50;;;;;;;;;;;;;;;;;;4972372;28;19962;-85
2021/07/03 12:39:15;;;;;;;;;;;;;;;;;;5009379;23;19929;-48
2021/07/03 12:41:40;;;;;;;;;;;;;;;;;;5005534;28;19929;-48
2021/07/03 12:44:05;;;;;;;;;;;;;;;;;;5007999;28;19918;-48
2021/07/03 12:46:31;;;;;;;;;;;;;;;;;;5009228;28;19924;-47
2021/07/03 12:48:56;;;;;;;;;;;;;;;;;;5005224;28;20364;-47
2021/07/03 12:51:21;;;;;;;;;;;;;;;;;;5009158;28;19910;-48
2021/07/03 12:53:46;;;;;;;;;;;;;;;;;;5007085;28;20389;-47
2021/07/03 12:56:11;;;;;;;;;;;;;;;;;;5008601;28;19940;-48
2021/07/03 12:58:36;;;;;;;;;;;;;;;;;;5008122;28;19960;-49
2021/07/03 13:01:02;;;;;;;;;;;;;;;;;;5008776;28;20431;-47
2021/07/03 13:03:27;;;;;;;;;;;;;;;;;;5007300;28;19996;-47
2021/07/03 13:05:52;;;;;;;;;;;;;;;;;;5005874;28;19914;-48
2021/07/03 13:08:17;;;;;;;;;;;;;;;;;;5008735;28;19924;-48
2021/07/03 13:10:42;;;;;;;;;;;;;;;;;;5007906;28;19917;-48
2021/07/03 13:13:07;;;;;;;;;;;;;;;;;;5009099;28;19916;-48
2021/07/03 13:15:32;;;;;;;;;;;;;;;;;;5005401;28;19992;-48
2021/07/03 13:17:57;;;;;;;;;;;;;;;;;;5006963;28;20938;-48
2021/07/03 13:20:22;;;;;;;;;;;;;;;;;;5007273;28;19921;-47
2021/07/03 13:22:48;;;;;;;;;;;;;;;;;;5008910;28;20352;-47
2021/07/03 13:25:13;;;;;;;;;;;;;;;;;;5007888;28;19916;-51
2021/07/03 13:27:38;;;;;;;;;;;;;;;;;;5007164;28;19922;-47
2021/07/03 13:30:03;;;;;;;;;;;;;;;;;;5008475;28;19921;-49
2021/07/03 13:32:28;;;;;;;;;;;;;;;;;;5007846;28;19918;-48
2021/07/03 13:34:53;;;;;;;;;;;;;;;;;;5010069;28;19917;-49
2021/07/03 13:37:18;;;;;;;;;;;;;;;;;;5011294;28;19956;-48
2021/07/03 13:39:43;;;;;;;;;;;;;;;;;;5010672;28;19927;-49
2021/07/03 13:42:08;;;;;;;;;;;;;;;;;;5009602;28;20297;-47
2021/07/03 13:44:33;;;;;;;;;;;;;;;;;;5012548;28;20243;-48
2021/07/03 13:46:59;;;;;;;;;;;;;;;;;;5010734;28;19917;-48
2021/07/03 13:49:24;;;;;;;;;;;;;;;;;;5009102;28;19942;-47
2021/07/03 13:51:49;;;;;;;;;;;;;;;;;;5010281;28;19945;-47
2021/07/03 13:54:14;;;;;;;;;;;;;;;;;;5012166;28;19913;-48
2021/07/03 13:56:39;;;;;;;;;;;;;;;;;;5009946;28;20020;-48
2021/07/03 13:59:04;;;;;;;;;;;;;;;;;;5012395;28;20342;-47
2021/07/03 14:01:29;;;;;;;;;;;;;;;;;;5011351;28;19913;-48
2021/07/03 14:03:56;;;;;;;;;;;;;;;;;;5010774;28;20004;-48
2021/07/03 14:06:21;;;;;;;;;;;;;;;;;;5008064;28;19913;-48
2021/07/03 14:08:46;;;;;;;;;;;;;;;;;;5010246;28;19920;-48
2021/07/03 14:11:12;;;;;;;;;;;;;;;;;;5009736;28;19914;-49
2021/07/03 14:13:37;;;;;;;;;;;;;;;;;;5011807;28;19916;-47
2021/07/03 14:16:02;;;;;;;;;;;;;;;;;;5009130;28;19944;-48
2021/07/03 14:18:27;;;;;;;;;;;;;;;;;;5009089;28;20004;-48
2021/07/03 14:20:52;;;;;;;;;;;;;;;;;;5008812;28;19921;-48
2021/07/03 14:23:17;;;;;;;;;;;;;;;;;;5011258;28;19967;-47
2021/07/03 14:25:42;;;;;;;;;;;;;;;;;;5005710;28;19920;-48
2021/07/03 14:28:08;;;;;;;;;;;;;;;;;;5008905;28;19913;-48
2021/07/03 14:30:35;;;;;;;;;;;;;;;;;;5008964;28;19913;-47
2021/07/03 14:33:00;;;;;;;;;;;;;;;;;;5007051;28;19967;-48
2021/07/03 14:35:25;;;;;;;;;;;;;;;;;;5010033;28;20090;-47
2021/07/03 14:37:50;;;;;;;;;;;;;;;;;;5010551;28;19913;-48
2021/07/03 14:40:15;;;;;;;;;;;;;;;;;;5009300;28;19979;-48
2021/07/03 14:42:40;;;;;;;;;;;;;;;;;;5009664;28;19913;-47
2021/07/03 14:45:05;;;;;;;;;;;;;;;;;;5010301;28;19937;-47
2021/07/03 14:47:30;;;;;;;;;;;;;;;;;;5009713;28;19909;-48
2021/07/03 14:49:56;;;;;;;;;;;;;;;;;;5008081;28;20396;-47
2021/07/03 14:52:21;;;;;;;;;;;;;;;;;;5010302;28;19913;-48
2021/07/03 14:54:46;;;;;;;;;;;;;;;;;;5009698;28;20011;-48
2021/07/03 14:57:11;;;;;;;;;;;;;;;;;;5008792;28;19913;-48
2021/07/03 14:59:36;;;;;;;;;;;;;;;;;;5009563;28;19909;-48
2021/07/03 15:02:01;;;;;;;;;;;;;;;;;;5009566;28;20373;-47
2021/07/03 15:04:26;;;;;;;;;;;;;;;;;;5009418;28;20021;-47
2021/07/03 15:06:51;;;;;;;;;;;;;;;;;;5007921;28;19922;-48
2021/07/03 15:09:16;;;;;;;;;;;;;;;;;;5004622;28;19933;-48
2021/07/03 15:11:42;;;;;;;;;;;;;;;;;;5007844;28;20308;-49
2021/07/03 15:14:07;;;;;;;;;;;;;;;;;;5008969;28;19916;-48
2021/07/03 15:16:32;;;;;;;;;;;;;;;;;;5008823;28;19934;-49
2021/07/03 15:18:57;;;;;;;;;;;;;;;;;;5006827;28;20377;-48
2021/07/03 15:21:22;;;;;;;;;;;;;;;;;;5009725;28;20328;-48
2021/07/03 15:23:47;;;;;;;;;;;;;;;;;;5008546;28;19997;-48
2021/07/03 15:26:12;;;;;;;;;;;;;;;;;;5009428;28;19914;-46
2021/07/03 15:28:37;;;;;;;;;;;;;;;;;;5008173;28;19917;-47
2021/07/03 15:31:02;;;;;;;;;;;;;;;;;;5009114;28;19913;-48
2021/07/03 15:33:28;;;;;;;;;;;;;;;;;;5009204;28;19917;-47
2021/07/03 15:35:53;;;;;;;;;;;;;;;;;;5008740;28;20329;-48
2021/07/03 15:38:18;;;;;;;;;;;;;;;;;;5009956;28;20432;-47
2021/07/03 15:40:43;;;;;;;;;;;;;;;;;;5006334;28;19920;-48
2021/07/03 15:43:08;;;;;;;;;;;;;;;;;;5007808;28;19925;-47
2021/07/03 15:45:33;;;;;;;;;;;;;;;;;;5010008;28;19909;-47
2021/07/03 15:47:58;;;;;;;;;;;;;;;;;;5007341;28;19918;-47
2021/07/03 15:50:23;;;;;;;;;;;;;;;;;;5009043;28;19910;-49
2021/07/03 15:52:48;;;;;;;;;;;;;;;;;;5008663;28;19918;-48
2021/07/03 15:55:13;;;;;;;;;;;;;;;;;;5008015;28;19987;-48
2021/07/03 15:57:39;;;;;;;;;;;;;;;;;;5007391;28;20370;-48
2021/07/03 16:00:04;;;;;;;;;;;;;;;;;;5007749;28;20430;-47
2021/07/03 16:02:29;;;;;;;;;;;;;;;;;;5009811;28;19964;-48
2021/07/03 16:04:55;;;;;;;;;;;;;;;;;;5007475;28;19913;-46
2021/07/03 16:07:21;;;;;;;;;;;;;;;;;;5007126;28;20289;-47
2021/07/03 16:09:46;;;;;;;;;;;;;;;;;;5007692;28;20293;-48
2021/07/03 16:12:11;;;;;;;;;;;;;;;;;;5009794;28;19952;-47
2021/07/03 16:14:36;;;;;;;;;;;;;;;;;;5007078;28;19953;-48
2021/07/03 16:17:17;;;;;;;;;;;;;;;;;;5007922;28;20233;-48
2021/07/03 16:19:42;;;;;;;;;;;;;;;;;;5007997;28;19943;-49
2021/07/03 16:22:07;;;;;;;;;;;;;;;;;;5007876;28;19917;-48
2021/07/03 16:24:32;;;;;;;;;;;;;;;;;;5008694;28;20004;-48
2021/07/03 16:26:57;;;;;;;;;;;;;;;;;;5007571;28;19921;-48
2021/07/03 16:29:22;;;;;;;;;;;;;;;;;;5008606;28;19976;-47
2021/07/03 16:31:48;;;;;;;;;;;;;;;;;;5008172;28;19914;-48